Time;durP1;ratioP1;P1;durP2;ratioP2;P2;SDS_P1;SDS_P2;PMS_P1;PMS_P2;Temp;Humidity;BMP_temperature;BMP_pressure;BME280_temperature;BME280_humidity;BME280_pressure;Samples;Min_cycle;Max_cycle;Signal;HPM_P1;HPM_P2
2022/05/11 00:01:12;;;;;;;8.70;2.77;;;;;;;17.44;61.21;99709.22;4985990;28;20123;-81
2022/05/11 00:03:39;;;;;;;6.88;2.17;;;;;;;17.42;60.06;99708.72;4986306;28;20256;-82
2022/05/11 00:06:05;;;;;;;6.07;3.08;;;;;;;17.53;60.32;99698.28;4986443;28;20030;-81
2022/05/11 00:08:31;;;;;;;5.53;2.40;;;;;;;17.48;59.46;99696.47;4985755;28;20488;-81
2022/05/11 00:10:56;;;;;;;4.32;1.95;;;;;;;17.38;58.75;99701.09;4986324;28;20031;-82
2022/05/11 00:13:21;;;;;;;5.82;2.33;;;;;;;17.41;58.56;99696.09;4986214;28;20022;-82
2022/05/11 00:15:47;;;;;;;21.08;2.85;;;;;;;17.38;57.19;99690.06;4986633;28;20038;-82
2022/05/11 00:18:26;;;;;;;4.57;2.23;;;;;;;17.33;57.25;99687.44;4986244;28;20190;-82
2022/05/11 00:20:52;;;;;;;4.45;2.15;;;;;;;17.42;59.46;99692.19;4985899;28;20271;-82
2022/05/11 00:23:17;;;;;;;7.82;2.45;;;;;;;17.40;58.86;99695.28;4986219;28;20034;-83
2022/05/11 00:25:44;;;;;;;7.68;2.80;;;;;;;17.48;59.39;99691.75;4986746;28;20026;-82
2022/05/11 00:28:10;;;;;;;5.35;2.35;;;;;;;17.45;57.54;99689.63;4987448;28;20045;-82
2022/05/11 00:30:35;;;;;;;7.35;2.50;;;;;;;17.44;57.08;99689.94;4985343;28;20471;-82
2022/05/11 00:33:01;;;;;;;9.60;2.92;;;;;;;17.46;59.54;99688.50;4986685;28;20029;-81
2022/05/11 00:35:29;;;;;;;14.57;3.35;;;;;;;17.35;56.83;99676.91;4986084;28;20037;-81
2022/05/11 00:37:54;;;;;;;4.85;2.40;;;;;;;17.36;58.39;99678.56;4986656;28;20031;-83
2022/05/11 00:40:22;;;;;;;4.40;2.03;;;;;;;17.30;56.73;99674.28;4986171;28;20034;-82
2022/05/11 00:42:47;;;;;;;4.50;1.83;;;;;;;17.38;57.83;99670.78;4986341;28;20283;-81
2022/05/11 00:45:13;;;;;;;8.95;2.13;;;;;;;17.47;56.99;99672.78;4986118;28;20058;-82
2022/05/11 00:47:52;;;;;;;4.85;2.00;;;;;;;17.53;57.31;99670.72;4985403;28;20050;-81
2022/05/11 00:50:25;;;;;;;5.72;2.33;;;;;;;17.39;56.31;99660.56;4986297;28;20034;-82
2022/05/11 00:52:58;;;;;;;8.20;2.40;;;;;;;17.37;55.30;99658.13;4986099;28;20072;-79
2022/05/11 00:55:26;;;;;;;;;;;;;;;17.41;56.29;99652.00;4986618;28;20027;-80
2022/05/11 00:57:56;;;;;;;5.65;2.30;;;;;;;17.42;55.74;99653.63;4986116;28;20076;-82
2022/05/11 01:00:23;;;;;;;12.23;3.92;;;;;;;17.49;56.99;99642.97;4985862;28;20378;-82
2022/05/11 01:02:53;;;;;;;7.45;1.95;;;;;;;17.37;55.62;99638.84;4985903;28;20477;-81
2022/05/11 01:05:19;;;;;;;7.55;2.30;;;;;;;17.45;55.19;99636.47;4985654;28;20512;-83
2022/05/11 01:07:44;;;;;;;9.32;2.70;;;;;;;17.48;56.35;99624.81;4986622;28;20062;-82
2022/05/11 01:10:10;;;;;;;9.18;1.73;;;;;;;17.55;56.77;99614.16;4986048;28;20366;-82
2022/05/11 01:12:40;;;;;;;8.77;2.17;;;;;;;17.34;54.88;99622.13;4986458;28;20030;-83
2022/05/11 01:15:08;;;;;;;5.13;2.33;;;;;;;17.41;54.68;99630.75;4986308;28;20042;-82
2022/05/11 01:17:36;;;;;;;8.63;2.83;;;;;;;17.44;55.22;99635.66;4985177;28;20030;-83
2022/05/11 01:20:05;;;;;;;8.90;3.38;;;;;;;17.48;56.67;99636.66;4987265;28;20504;-82
2022/05/11 01:22:51;;;;;;;15.35;2.50;;;;;;;17.54;55.07;99642.84;4969835;28;20041;-82
2022/05/11 01:25:18;;;;;;;6.65;2.40;;;;;;;17.54;56.56;99636.50;4970579;28;20027;-81
2022/05/11 01:27:45;;;;;;;9.05;2.90;;;;;;;17.48;58.00;99642.16;4969695;28;20567;-82
2022/05/11 01:30:16;;;;;;;9.88;3.35;;;;;;;17.35;55.24;99632.81;4969729;28;20125;-81
2022/05/11 01:32:47;;;;;;;7.38;3.55;;;;;;;17.40;56.41;99629.13;5001012;28;20044;-82
2022/05/11 01:35:42;;;;;;;7.72;2.40;;;;;;;17.53;55.48;99630.19;5008347;28;20034;-81
2022/05/11 01:38:19;;;;;;;5.10;2.30;;;;;;;17.44;55.04;99608.09;5009595;28;20037;-83
2022/05/11 01:40:45;;;;;;;6.97;3.25;;;;;;;17.35;55.56;99610.00;5003821;28;20030;-82
2022/05/11 01:43:15;;;;;;;11.43;4.63;;;;;;;17.21;54.71;99599.03;4989409;28;20049;-80
2022/05/11 01:45:41;;;;;;;5.05;2.45;;;;;;;17.24;55.20;99588.22;4989379;28;20295;-81
2022/05/11 01:48:06;;;;;;;8.23;3.20;;;;;;;17.30;54.07;99585.31;4985232;28;20054;-83
2022/05/11 01:50:31;;;;;;;9.40;2.97;;;;;;;17.31;53.43;99585.00;4989223;28;20264;-82
2022/05/11 01:52:56;;;;;;;35.47;3.33;;;;;;;17.25;53.48;99580.75;4986064;28;20272;-83
2022/05/11 01:55:35;;;;;;;4.15;2.28;;;;;;;17.30;53.35;99588.06;4985390;28;20889;-82
2022/05/11 01:58:01;;;;;;;4.57;1.98;;;;;;;17.38;53.64;99577.13;4985475;28;20109;-82
2022/05/11 02:00:27;;;;;;;5.05;1.98;;;;;;;17.43;53.03;99578.91;4984710;28;20026;-81
2022/05/11 02:02:52;;;;;;;3.88;1.83;;;;;;;17.30;52.81;99586.13;4998033;28;20579;-82
2022/05/11 02:08:02;;;;;;;5.45;2.38;;;;;;;17.29;53.16;99572.69;4990765;28;20088;-83
2022/05/11 02:10:28;;;;;;;4.38;2.45;;;;;;;17.31;53.51;99559.41;4967426;28;20038;-81
2022/05/11 02:12:55;;;;;;;6.97;2.78;;;;;;;17.31;53.26;99567.69;4985726;28;20122;-82
2022/05/11 02:15:21;;;;;;;4.97;2.47;;;;;;;17.22;53.64;99567.63;4985954;28;20514;-81
2022/05/11 02:17:46;;;;;;;7.97;2.72;;;;;;;17.19;53.70;99563.53;4984987;28;20517;-81
2022/05/11 02:20:15;;;;;;;6.50;2.95;;;;;;;17.24;54.00;99559.84;4985684;28;20089;-82
2022/05/11 02:22:41;;;;;;;6.97;2.67;;;;;;;17.21;53.45;99560.47;4985110;28;20050;-82
2022/05/11 02:25:08;;;;;;;6.28;3.10;;;;;;;17.22;54.25;99562.94;4985671;28;20126;-82
2022/05/11 02:27:34;;;;;;;5.13;2.80;;;;;;;17.25;53.60;99547.69;4984930;28;20025;-82
2022/05/11 02:30:00;;;;;;;6.22;3.25;;;;;;;17.25;54.09;99553.19;4967844;28;20030;-83
2022/05/11 02:32:26;;;;;;;5.65;2.25;;;;;;;17.21;53.85;99543.94;4993419;28;20037;-80
2022/05/11 02:37:36;;;;;;;;;;;;;;;17.32;53.95;99544.50;5005834;28;20041;-81
2022/05/11 02:40:02;;;;;;;27.80;4.53;;;;;;;17.35;54.33;99539.16;5003986;28;19917;-80
2022/05/11 02:42:28;;;;;;;5.65;2.47;;;;;;;17.41;56.02;99548.09;4985262;28;20547;-82
2022/05/11 02:44:53;;;;;;;6.57;2.75;;;;;;;17.36;55.37;99546.31;4984891;28;20034;-82
2022/05/11 02:47:19;;;;;;;7.27;2.50;;;;;;;17.27;53.82;99553.69;4984922;28;20050;-81
2022/05/11 02:49:47;;;;;;;5.45;2.40;;;;;;;17.33;55.91;99548.88;4985324;28;20314;-81
2022/05/11 02:52:14;;;;;;;5.68;2.78;;;;;;;17.30;55.67;99544.00;4984281;28;20042;-82
2022/05/11 02:54:40;;;;;;;7.13;2.58;;;;;;;17.32;55.73;99538.97;4985242;28;20124;-82
2022/05/11 02:57:06;;;;;;;4.82;2.67;;;;;;;17.13;56.62;99537.25;4984232;28;20573;-82
2022/05/11 02:59:31;;;;;;;5.53;2.40;;;;;;;16.98;58.44;99531.00;4985350;28;20113;-82
2022/05/11 03:01:57;;;;;;;6.32;2.38;;;;;;;17.08;55.94;99529.09;4984011;28;20038;-82
2022/05/11 03:04:24;;;;;;;6.35;3.55;;;;;;;17.08;55.26;99529.09;4985107;28;20040;-81
2022/05/11 03:06:49;;;;;;;7.28;3.08;;;;;;;17.07;53.82;99528.28;4985095;28;20034;-81
2022/05/11 03:09:17;;;;;;;5.37;2.30;;;;;;;17.00;54.10;99522.41;4984643;28;20046;-81
2022/05/11 03:11:44;;;;;;;9.48;3.00;;;;;;;17.10;54.06;99524.09;4984128;28;20279;-82
2022/05/11 03:14:10;;;;;;;4.80;2.38;;;;;;;17.03;53.87;99516.28;4983679;28;20477;-83
2022/05/11 03:16:36;;;;;;;4.63;2.47;;;;;;;17.04;54.32;99518.69;4984510;28;20041;-82
2022/05/11 03:19:02;;;;;;;8.57;2.83;;;;;;;17.08;54.72;99513.41;4984148;28;20030;-82
2022/05/11 03:21:28;;;;;;;8.77;2.92;;;;;;;17.10;54.16;99511.16;4984156;28;20042;-82
2022/05/11 03:23:54;;;;;;;7.05;2.70;;;;;;;17.03;53.68;99519.84;4984383;28;20031;-82
2022/05/11 03:26:19;;;;;;;5.18;2.55;;;;;;;16.98;54.37;99513.66;4984226;28;20041;-82
2022/05/11 03:28:45;;;;;;;6.28;3.28;;;;;;;17.10;55.31;99511.16;4984123;28;20041;-83
2022/05/11 03:31:10;;;;;;;5.05;2.47;;;;;;;16.94;56.15;99516.22;4983735;28;20038;-80
2022/05/11 03:36:20;;;;;;;3.75;2.05;;;;;;;16.98;55.46;99510.91;5003789;28;20607;-80
2022/05/11 03:38:45;;;;;;;12.82;3.70;;;;;;;17.04;55.62;99506.91;5004143;28;20041;-81
2022/05/11 03:41:11;;;;;;;4.07;2.13;;;;;;;16.92;54.08;99505.50;4994254;28;20487;-82
2022/05/11 03:43:36;;;;;;;5.97;2.45;;;;;;;16.94;54.61;99501.66;4983261;28;20298;-82
2022/05/11 03:46:01;;;;;;;5.97;2.33;;;;;;;16.92;54.92;99494.50;4984295;28;20027;-82
2022/05/11 03:48:27;;;;;;;7.60;2.55;;;;;;;16.97;55.06;99490.00;4983460;28;20051;-81
2022/05/11 03:50:53;;;;;;;5.13;2.60;;;;;;;16.95;55.00;99487.56;4984268;28;20034;-83
2022/05/11 03:53:18;;;;;;;5.03;2.30;;;;;;;16.91;54.52;99487.38;4983978;28;20030;-82
2022/05/11 03:55:43;;;;;;;7.37;2.60;;;;;;;16.92;54.01;99475.22;4984416;28;20065;-81
2022/05/11 03:58:08;;;;;;;9.40;2.33;;;;;;;16.92;54.19;99477.19;4983115;28;20275;-82
2022/05/11 04:00:34;;;;;;;4.25;2.28;;;;;;;16.91;54.22;99478.31;4983699;28;20087;-82
2022/05/11 04:02:59;;;;;;;5.80;2.60;;;;;;;16.97;54.49;99484.47;4998069;28;20064;-82
2022/05/11 04:05:25;;;;;;;6.75;3.15;;;;;;;17.01;53.96;99471.72;5002836;28;20037;-82
2022/05/11 04:07:50;;;;;;;14.85;3.08;;;;;;;17.05;53.72;99475.47;4988078;28;20030;-82
2022/05/11 04:10:17;;;;;;;8.47;3.13;;;;;;;16.96;53.71;99478.19;4982476;28;20473;-82
2022/05/11 04:12:43;;;;;;;4.68;1.85;;;;;;;17.02;54.09;99482.41;4983742;28;20331;-81
2022/05/11 04:15:10;;;;;;;6.68;2.20;;;;;;;16.99;54.08;99476.72;4982992;28;20141;-82
2022/05/11 04:17:36;;;;;;;6.70;2.60;;;;;;;16.99;54.00;99479.47;4983332;28;20061;-82
2022/05/11 04:20:03;;;;;;;4.85;2.33;;;;;;;16.98;54.86;99481.44;4983719;28;20484;-82
2022/05/11 04:22:29;;;;;;;7.85;3.20;;;;;;;17.10;56.38;99480.03;4983007;28;20117;-82
2022/05/11 04:27:39;;;;;;;;;;;;;;;17.07;54.56;99467.69;4982828;28;20101;-82
2022/05/11 04:30:04;;;;;;;6.85;3.25;;;;;;;16.98;54.55;99464.09;4983959;28;19922;-83
2022/05/11 04:32:30;;;;;;;3.72;2.00;;;;;;;17.02;54.19;99465.09;4982741;28;20129;-82
2022/05/11 04:34:55;;;;;;;5.77;2.83;;;;;;;17.00;54.46;99467.34;4983769;28;20026;-82
2022/05/11 04:37:20;;;;;;;10.25;2.53;;;;;;;17.07;55.10;99473.22;4983124;28;20291;-82
2022/05/11 04:39:46;;;;;;;6.90;2.83;;;;;;;17.06;53.82;99471.59;4982877;28;20109;-81
2022/05/11 04:42:11;;;;;;;9.65;2.30;;;;;;;17.12;54.44;99475.88;4982940;28;20042;-81
2022/05/11 04:44:37;;;;;;;13.55;3.58;;;;;;;17.24;55.87;99477.22;4982778;28;20292;-81
2022/05/11 04:47:14;;;;;;;4.72;2.40;;;;;;;17.21;57.58;99475.91;4983145;28;20425;-82
2022/05/11 04:49:40;;;;;;;6.43;3.22;;;;;;;17.19;58.07;99469.09;4982900;28;20049;-82
2022/05/11 04:52:16;;;;;;;11.00;2.95;;;;;;;17.03;59.13;99474.97;4982778;28;20041;-81
2022/05/11 04:54:44;;;;;;;6.65;2.85;;;;;;;16.97;59.73;99470.72;4983026;28;20148;-83
2022/05/11 04:57:10;;;;;;;9.00;3.28;;;;;;;16.94;59.07;99468.59;4987114;28;20575;-83
2022/05/11 04:59:36;;;;;;;5.95;2.70;;;;;;;16.95;57.60;99465.53;4987266;28;20030;-82
2022/05/11 05:02:03;;;;;;;7.50;3.13;;;;;;;16.97;56.38;99463.28;4986299;28;20037;-82
2022/05/11 05:04:30;;;;;;;15.93;2.85;;;;;;;16.97;56.26;99456.94;4987540;28;20062;-82
2022/05/11 05:06:56;;;;;;;8.25;2.15;;;;;;;16.91;56.13;99448.84;4986692;28;20855;-82
2022/05/11 05:09:21;;;;;;;6.15;3.20;;;;;;;16.90;56.34;99447.19;4987569;28;20102;-83
2022/05/11 05:11:48;;;;;;;9.27;3.45;;;;;;;16.91;56.31;99446.09;4986625;28;20026;-82
2022/05/11 05:14:14;;;;;;;11.52;3.30;;;;;;;16.92;55.97;99449.66;4987200;28;20037;-81
2022/05/11 05:16:39;;;;;;;15.18;2.90;;;;;;;17.00;55.85;99445.31;4987133;28;20027;-83
2022/05/11 05:19:05;;;;;;;5.63;2.70;;;;;;;16.99;55.80;99438.16;4987050;28;20034;-83
2022/05/11 05:21:31;;;;;;;6.28;2.42;;;;;;;17.12;55.88;99450.22;4987089;28;20130;-82
2022/05/11 05:23:57;;;;;;;9.15;2.75;;;;;;;17.15;55.00;99450.44;4986388;28;20022;-82
2022/05/11 05:26:22;;;;;;;9.25;3.20;;;;;;;17.19;55.89;99455.31;4986765;28;20109;-80
2022/05/11 05:31:32;;;;;;;9.52;2.42;;;;;;;17.43;57.25;99454.13;4984159;28;20173;-83
2022/05/11 05:34:00;;;;;;;8.25;3.35;;;;;;;17.50;56.98;99465.47;4987005;28;20121;-83
2022/05/11 05:36:30;;;;;;;9.00;3.78;;;;;;;17.46;57.00;99453.47;4985982;28;20030;-84
2022/05/11 05:38:58;;;;;;;6.25;3.35;;;;;;;17.48;57.38;99463.03;4986982;28;20057;-84
2022/05/11 05:41:24;;;;;;;10.52;3.67;;;;;;;17.34;57.05;99449.38;4985985;28;20121;-82
2022/05/11 05:43:50;;;;;;;11.05;4.05;;;;;;;17.26;57.80;99458.44;4986949;28;20041;-83
2022/05/11 05:46:17;;;;;;;10.43;3.95;;;;;;;17.22;58.00;99447.22;4986991;28;20034;-83
2022/05/11 05:52:04;;;;;;;9.93;5.13;;;;;;;17.18;58.91;99442.66;4985975;28;20516;-84
2022/05/11 05:54:35;;;;;;;15.43;5.70;;;;;;;17.20;58.58;99437.66;4968304;28;20034;-84
2022/05/11 05:57:00;;;;;;;18.20;5.80;;;;;;;17.14;59.10;99442.50;4986114;28;20077;-84
2022/05/11 05:59:26;;;;;;;10.90;5.28;;;;;;;17.17;59.15;99444.59;4986114;28;20054;-82
2022/05/11 06:01:52;;;;;;;9.50;4.97;;;;;;;17.12;59.14;99451.09;4985161;28;20499;-83
2022/05/11 06:04:17;;;;;;;15.18;6.68;;;;;;;17.08;59.61;99441.81;4986382;28;20045;-83
2022/05/11 06:06:42;;;;;;;15.43;5.68;;;;;;;17.15;59.61;99430.34;4983393;28;20579;-84
2022/05/11 06:09:09;;;;;;;9.20;5.22;;;;;;;17.24;59.43;99441.41;4984941;28;20469;-81
2022/05/11 06:11:37;;;;;;;12.38;6.88;;;;;;;17.15;60.06;99435.84;4984686;28;20508;-83
2022/05/11 06:14:04;;;;;;;11.23;7.00;;;;;;;17.18;59.85;99437.16;4986882;28;20037;-83
2022/05/11 06:16:31;;;;;;;13.25;6.00;;;;;;;17.31;60.18;99439.00;4984167;28;20026;-84
2022/05/11 06:18:58;;;;;;;16.05;5.75;;;;;;;17.25;60.22;99445.78;4984313;28;20046;-84
2022/05/11 06:21:24;;;;;;;10.45;5.80;;;;;;;17.29;59.98;99445.97;4989613;28;20035;-82
2022/05/11 06:23:49;;;;;;;8.50;6.07;;;;;;;17.38;60.84;99442.13;4971999;28;20058;-84
2022/05/11 06:26:16;;;;;;;13.82;6.55;;;;;;;17.53;59.75;99440.06;4990611;28;20080;-83
2022/05/11 06:28:43;;;;;;;11.82;6.72;;;;;;;17.50;60.07;99435.16;4989676;28;20038;-83
2022/05/11 06:31:09;;;;;;;12.02;5.25;;;;;;;17.59;60.88;99433.22;4971758;28;20038;-83
2022/05/11 06:33:35;;;;;;;10.15;6.00;;;;;;;17.62;60.62;99432.59;4989768;28;20038;-85
2022/05/11 06:36:04;;;;;;;11.10;6.28;;;;;;;17.63;60.59;99422.41;4990180;28;20615;-85
2022/05/11 06:38:30;;;;;;;9.52;5.10;;;;;;;17.78;60.11;99434.09;4990496;28;20034;-86
2022/05/11 06:40:55;;;;;;;13.68;6.43;;;;;;;17.86;61.11;99430.53;4990016;28;20761;-86
2022/05/11 06:43:21;;;;;;;9.95;6.43;;;;;;;17.89;60.71;99429.09;4991353;28;20061;-86
2022/05/11 06:45:47;;;;;;;12.00;6.72;;;;;;;17.92;60.74;99429.25;4988331;28;20470;-86
2022/05/11 06:48:14;;;;;;;10.25;5.32;;;;;;;17.93;60.33;99430.06;4988141;28;20547;-85
2022/05/11 06:50:40;;;;;;;13.57;6.10;;;;;;;17.80;60.29;99426.31;4971885;28;20026;-86
2022/05/11 06:53:12;;;;;;;8.63;5.60;;;;;;;17.83;60.80;99437.53;4990063;28;20461;-85
2022/05/11 07:01:14;;;;;;;13.93;6.93;;;;;;;17.98;60.53;99438.16;4970435;28;20205;-85
2022/05/11 07:03:40;;;;;;;10.23;5.43;;;;;;;18.13;60.06;99442.41;4989430;28;20030;-85
2022/05/11 07:06:05;;;;;;;14.85;7.25;;;;;;;18.05;60.31;99441.28;4988635;28;20030;-82
2022/05/11 07:08:44;;;;;;;20.45;6.97;;;;;;;18.11;60.67;99450.19;4971973;28;20031;-82
2022/05/11 07:13:55;;;;;;;14.43;7.32;;;;;;;17.98;59.48;99443.69;4989826;28;20088;-84
2022/05/11 07:16:21;;;;;;;10.82;6.88;;;;;;;18.06;59.46;99450.38;4988569;28;20058;-84
2022/05/11 07:18:48;;;;;;;12.85;6.82;;;;;;;18.14;59.88;99445.97;4988663;28;20438;-84
2022/05/11 07:21:14;;;;;;;10.27;6.15;;;;;;;18.08;60.09;99440.59;4988274;28;20081;-84
2022/05/11 07:23:39;;;;;;;18.02;8.52;;;;;;;18.08;59.98;99437.84;4989329;28;20034;-84
2022/05/11 07:26:04;;;;;;;10.87;6.07;;;;;;;18.29;59.48;99440.00;4989530;28;20038;-85
2022/05/11 07:28:30;;;;;;;12.27;6.80;;;;;;;18.24;59.66;99437.41;4988460;28;20264;-80
2022/05/11 07:30:55;;;;;;;14.05;7.43;;;;;;;18.22;59.67;99434.16;4987202;28;20514;-80
2022/05/11 07:33:21;;;;;;;16.87;7.90;;;;;;;18.17;60.01;99431.56;4987377;28;20952;-84
2022/05/11 07:35:46;;;;;;;18.88;8.52;;;;;;;18.23;59.32;99432.19;4988616;28;20249;-83
2022/05/11 07:38:14;;;;;;;18.50;9.30;;;;;;;18.14;58.91;99434.94;4988097;28;20037;-82
2022/05/11 07:40:41;;;;;;;18.77;6.97;;;;;;;18.18;58.88;99447.00;5000456;28;20089;-82
2022/05/11 07:43:08;;;;;;;11.80;7.68;;;;;;;18.19;58.72;99449.41;4988381;28;20466;-83
2022/05/11 07:45:34;;;;;;;19.77;8.10;;;;;;;18.18;58.94;99442.25;4987489;28;20509;-82
2022/05/11 07:47:59;;;;;;;21.50;8.95;;;;;;;18.23;59.23;99437.72;4987884;28;20054;-81
2022/05/11 07:50:24;;;;;;;16.83;7.33;;;;;;;18.28;58.69;99437.56;4986572;28;20649;-83
2022/05/11 07:52:50;;;;;;;40.83;8.60;;;;;;;18.33;58.60;99442.91;4988537;28;20268;-84
2022/05/11 07:55:17;;;;;;;12.45;7.10;;;;;;;18.32;57.82;99441.31;4986881;28;20034;-84
2022/05/11 08:00:26;;;;;;;12.88;6.90;;;;;;;18.38;57.62;99442.75;4987835;28;20189;-84
2022/05/11 08:02:52;;;;;;;15.52;7.30;;;;;;;18.43;58.23;99439.00;4986065;28;20125;-82
2022/05/11 08:05:19;;;;;;;16.52;7.88;;;;;;;18.47;57.87;99441.94;4987906;28;20045;-82
2022/05/11 08:07:47;;;;;;;17.27;7.40;;;;;;;18.47;57.95;99441.94;4986113;28;20022;-83
2022/05/11 08:10:17;;;;;;;11.82;7.10;;;;;;;18.51;57.85;99426.34;4988302;28;20161;-83
2022/05/11 08:12:43;;;;;;;15.90;5.95;;;;;;;18.69;57.52;99427.13;4986666;28;20041;-83
2022/05/11 08:15:10;;;;;;;16.08;5.93;;;;;;;18.57;57.22;99424.22;4986553;28;20030;-82
2022/05/11 08:17:36;;;;;;;14.50;5.97;;;;;;;18.59;56.96;99430.25;4986417;28;20030;-79
